createdAt,value
2018-09-22T00:00:01.592Z,11.65
2018-09-22T00:01:01.588Z,11.62
2018-09-22T00:02:01.586Z,11.65
2018-09-22T00:03:01.561Z,11.70
2018-09-22T00:04:01.556Z,11.65
2018-09-22T00:05:01.536Z,11.72
2018-09-22T00:06:01.532Z,11.64
2018-09-22T00:07:01.531Z,11.73
2018-09-22T00:08:01.506Z,11.72
2018-09-22T00:09:01.500Z,11.67
2018-09-22T00:10:01.502Z,11.72
2018-09-22T00:11:01.472Z,11.69
2018-09-22T00:12:01.459Z,11.65
2018-09-22T00:13:01.455Z,11.70
2018-09-22T00:14:01.443Z,11.69
2018-09-22T00:15:01.434Z,11.75
2018-09-22T00:16:01.437Z,11.72
2018-09-22T00:17:01.404Z,11.65
2018-09-22T00:18:01.426Z,11.70
2018-09-22T00:19:01.385Z,11.62
2018-09-22T00:20:01.374Z,11.64
2018-09-22T00:21:01.384Z,11.70
2018-09-22T00:22:01.405Z,11.69
2018-09-22T00:23:01.358Z,11.67
2018-09-22T00:24:01.338Z,11.70
2018-09-22T00:25:01.319Z,11.62
2018-09-22T00:26:01.307Z,11.73
2018-09-22T00:27:01.302Z,11.69
2018-09-22T00:28:01.306Z,11.67
2018-09-22T00:29:01.275Z,11.65
2018-09-22T00:30:01.267Z,11.69
2018-09-22T00:31:01.255Z,11.65
2018-09-22T00:32:01.246Z,11.70
2018-09-22T00:33:01.238Z,11.58
2018-09-22T00:34:01.241Z,11.69
2018-09-22T00:35:01.212Z,11.61
2018-09-22T00:36:01.206Z,11.69
2018-09-22T00:37:01.188Z,11.69
2018-09-22T00:38:01.179Z,11.61
2018-09-22T00:39:01.177Z,11.70
2018-09-22T00:40:01.151Z,11.67
2018-09-22T00:41:01.153Z,11.64
2018-09-22T00:42:01.139Z,11.72
2018-09-22T00:43:01.154Z,11.64
2018-09-22T00:44:01.125Z,11.62
2018-09-22T00:45:01.106Z,11.65
2018-09-22T00:46:01.113Z,11.72
2018-09-22T00:47:01.084Z,11.70
2018-09-22T00:48:01.076Z,11.65
2018-09-22T00:49:01.073Z,11.60
2018-09-22T00:50:01.049Z,11.51
2018-09-22T00:51:01.038Z,11.52
2018-09-22T00:52:01.024Z,11.55
2018-09-22T00:53:01.024Z,11.51
2018-09-22T00:54:01.007Z,11.49
2018-09-22T00:55:01.014Z,11.49
2018-09-22T00:56:00.987Z,11.37
2018-09-22T00:57:00.971Z,11.37
2018-09-22T00:58:00.961Z,11.46
2018-09-22T00:59:00.951Z,11.32
2018-09-22T01:00:00.946Z,11.40
2018-09-22T01:01:00.943Z,11.39
2018-09-22T01:02:00.917Z,11.39
2018-09-22T01:03:00.903Z,11.39
2018-09-22T01:04:00.893Z,11.35
2018-09-22T01:05:00.891Z,11.35
2018-09-22T01:06:00.874Z,11.22
2018-09-22T01:07:00.879Z,11.19
2018-09-22T01:08:00.865Z,11.21
2018-09-22T01:09:00.839Z,11.29
2018-09-22T01:10:00.841Z,11.19
2018-09-22T01:11:00.820Z,11.24
2018-09-22T01:12:00.802Z,11.25
2018-09-22T01:13:00.803Z,11.17
2018-09-22T01:14:00.788Z,11.19
2018-09-22T01:15:00.808Z,11.18
2018-09-22T01:16:00.759Z,11.25
2018-09-22T01:17:00.758Z,11.21
2018-09-22T01:18:00.746Z,11.18
2018-09-22T01:19:00.735Z,11.24
2018-09-22T01:20:00.723Z,11.25
2018-09-22T01:21:00.715Z,11.33
2018-09-22T01:22:00.695Z,11.24
2018-09-22T01:23:00.694Z,11.27
2018-09-22T01:24:00.670Z,11.19
2018-09-22T01:25:00.675Z,11.15
2018-09-22T01:26:00.674Z,11.27
2018-09-22T01:27:00.650Z,11.24
2018-09-22T01:28:00.632Z,11.15
2018-09-22T01:29:00.615Z,11.24
2018-09-22T01:30:00.612Z,11.19
2018-09-22T01:31:00.608Z,11.18
2018-09-22T01:32:00.589Z,11.17
2018-09-22T01:33:00.571Z,11.14
2018-09-22T01:34:00.583Z,11.17
2018-09-22T01:35:00.552Z,11.06
2018-09-22T01:36:00.537Z,11.04
2018-09-22T01:37:00.533Z,11.00
2018-09-22T01:38:00.524Z,11.07
2018-09-22T01:39:00.512Z,10.96
2018-09-22T01:40:00.515Z,11.02
2018-09-22T01:41:00.480Z,10.91
2018-09-22T01:42:00.474Z,10.96
2018-09-22T01:43:00.476Z,10.94
2018-09-22T01:44:00.450Z,10.84
2018-09-22T01:45:00.459Z,10.85
2018-09-22T01:46:00.433Z,10.92
2018-09-22T01:47:00.419Z,10.81
2018-09-22T01:48:00.406Z,10.68
2018-09-22T01:49:00.400Z,10.76
2018-09-22T01:50:00.400Z,10.73
2018-09-22T01:51:00.379Z,10.68
2018-09-22T01:52:00.369Z,10.64
2018-09-22T01:53:00.352Z,10.73
2018-09-22T01:54:00.342Z,10.70
2018-09-22T01:55:00.346Z,10.68
2018-09-22T01:56:00.316Z,10.66
2018-09-22T01:57:00.315Z,10.68
2018-09-22T01:58:00.300Z,10.67
2018-09-22T01:59:00.289Z,10.61
2018-09-22T02:00:00.281Z,10.64
2018-09-22T02:01:00.281Z,10.61
2018-09-22T02:02:00.253Z,10.68
2018-09-22T02:03:00.249Z,10.64
2018-09-22T02:04:00.242Z,10.70
2018-09-22T02:05:00.217Z,10.64
2018-09-22T02:06:00.210Z,10.67
2018-09-22T02:07:00.225Z,10.73
2018-09-22T02:08:00.187Z,10.68
2018-09-22T02:09:00.181Z,10.71
2018-09-22T02:10:00.170Z,10.68
2018-09-22T02:11:00.158Z,10.66
2018-09-22T02:12:00.142Z,10.74
2018-09-22T02:13:00.148Z,10.64
2018-09-22T02:14:00.127Z,10.81
2018-09-22T02:15:00.113Z,10.66
2018-09-22T02:16:00.104Z,10.76
2018-09-22T02:17:00.092Z,10.79
2018-09-22T02:18:00.087Z,10.79
2018-09-22T02:19:00.077Z,10.73
2018-09-22T02:20:00.060Z,10.76
2018-09-22T02:21:00.048Z,10.73
2018-09-22T02:22:00.030Z,10.86
2018-09-22T02:23:00.034Z,10.92
2018-09-22T02:24:00.012Z,10.94
2018-09-22T02:25:00.008Z,10.88
2018-09-22T02:25:59.998Z,11.09
2018-09-22T02:26:59.989Z,11.06
2018-09-22T02:27:59.984Z,11.00
2018-09-22T02:28:59.956Z,11.04
2018-09-22T02:29:59.941Z,11.17
2018-09-22T02:30:59.930Z,11.21
2018-09-22T02:31:59.933Z,11.17
2018-09-22T02:32:59.925Z,11.21
2018-09-22T02:33:59.909Z,11.28
2018-09-22T02:34:59.889Z,11.24
2018-09-22T02:35:59.877Z,11.19
2018-09-22T02:36:59.871Z,11.32
2018-09-22T02:37:59.938Z,11.33
2018-09-22T02:38:59.857Z,11.17
2018-09-22T02:39:59.851Z,11.28
2018-09-22T02:40:59.825Z,11.36
2018-09-22T02:41:59.819Z,11.28
2018-09-22T02:42:59.802Z,11.42
2018-09-22T02:43:59.799Z,11.43
2018-09-22T02:44:59.796Z,11.39
2018-09-22T02:45:59.776Z,11.27
2018-09-22T02:46:59.816Z,11.33
2018-09-22T02:47:59.762Z,11.40
2018-09-22T02:48:59.738Z,11.29
2018-09-22T02:49:59.723Z,11.35
2018-09-22T02:50:59.719Z,11.39
2018-09-22T02:51:59.773Z,11.36
2018-09-22T02:52:59.691Z,11.37
2018-09-22T02:53:59.678Z,11.43
2018-09-22T02:54:59.668Z,11.43
2018-09-22T02:55:59.658Z,11.43
2018-09-22T02:56:59.742Z,11.43
2018-09-22T02:57:59.652Z,11.37
2018-09-22T02:58:59.630Z,11.52
2018-09-22T02:59:59.619Z,11.39
2018-09-22T03:00:59.605Z,11.43
2018-09-22T03:01:59.634Z,11.49
2018-09-22T03:02:59.600Z,11.42
2018-09-22T03:03:59.572Z,11.47
2018-09-22T03:04:59.561Z,11.39
2018-09-22T03:05:59.553Z,11.49
2018-09-22T03:06:59.589Z,11.42
2018-09-22T03:07:59.538Z,11.44
2018-09-22T03:08:59.520Z,11.42
2018-09-22T03:09:59.525Z,11.46
2018-09-22T03:10:59.498Z,11.39
2018-09-22T03:11:59.520Z,11.39
2018-09-22T03:12:59.484Z,11.39
2018-09-22T03:13:59.458Z,11.37
2018-09-22T03:14:59.448Z,11.32
2018-09-22T03:15:59.439Z,11.32
2018-09-22T03:16:59.432Z,11.43
2018-09-22T03:17:59.436Z,11.28
2018-09-22T03:18:59.414Z,11.29
2018-09-22T03:19:59.399Z,11.21
2018-09-22T03:20:59.387Z,11.25
2018-09-22T03:21:59.367Z,11.22
2018-09-22T03:22:59.389Z,11.32
2018-09-22T03:23:59.355Z,11.24
2018-09-22T03:24:59.368Z,11.17
2018-09-22T03:25:59.339Z,11.27
2018-09-22T03:26:59.348Z,11.27
2018-09-22T03:27:59.308Z,11.14
2018-09-22T03:28:59.314Z,11.22
2018-09-22T03:29:59.287Z,11.18
2018-09-22T03:30:59.280Z,11.14
2018-09-22T03:31:59.267Z,11.09
2018-09-22T03:32:59.252Z,11.18
2018-09-22T03:33:59.239Z,11.22
2018-09-22T03:34:59.264Z,11.18
2018-09-22T03:35:59.218Z,11.07
2018-09-22T03:36:59.212Z,11.11
2018-09-22T03:37:59.203Z,11.09
2018-09-22T03:38:59.183Z,11.09
2018-09-22T03:39:59.176Z,11.11
2018-09-22T03:40:59.180Z,11.15
2018-09-22T03:41:59.156Z,11.17
2018-09-22T03:42:59.147Z,11.10
2018-09-22T03:43:59.133Z,11.02
2018-09-22T03:44:59.120Z,10.94
2018-09-22T03:45:59.120Z,11.00
2018-09-22T03:46:59.115Z,10.84
2018-09-22T03:47:59.087Z,11.06
2018-09-22T03:48:59.078Z,11.00
2018-09-22T03:49:59.071Z,10.92
2018-09-22T03:50:59.062Z,10.89
2018-09-22T03:51:59.048Z,10.85
2018-09-22T03:52:59.043Z,10.86
2018-09-22T03:53:59.015Z,10.85
2018-09-22T03:54:59.018Z,10.88
2018-09-22T03:55:59.021Z,10.86
2018-09-22T03:56:58.987Z,10.84
2018-09-22T03:57:58.988Z,10.84
2018-09-22T03:58:58.964Z,10.79
2018-09-22T03:59:58.959Z,10.74
2018-09-22T04:00:58.956Z,10.76
2018-09-22T04:01:58.939Z,10.79
2018-09-22T04:02:58.945Z,10.68
2018-09-22T04:03:58.912Z,10.70
2018-09-22T04:04:58.897Z,10.66
2018-09-22T04:05:58.885Z,10.66
2018-09-22T04:06:58.876Z,10.61
2018-09-22T04:07:58.866Z,10.59
2018-09-22T04:08:58.876Z,10.63
2018-09-22T04:09:58.852Z,10.53
2018-09-22T04:10:58.841Z,10.53
2018-09-22T04:11:58.824Z,10.59
2018-09-22T04:12:58.818Z,10.59
2018-09-22T04:13:58.803Z,10.60
2018-09-22T04:14:58.798Z,10.63
2018-09-22T04:15:58.794Z,10.61
2018-09-22T04:16:58.764Z,10.68
2018-09-22T04:17:58.751Z,10.68
2018-09-22T04:18:58.741Z,10.59
2018-09-22T04:19:58.748Z,10.53
2018-09-22T04:20:58.728Z,10.61
2018-09-22T04:21:58.716Z,10.64
2018-09-22T04:22:58.713Z,10.60
2018-09-22T04:23:58.690Z,10.55
2018-09-22T04:24:58.686Z,10.61
2018-09-22T04:25:58.669Z,10.59
2018-09-22T04:26:58.660Z,10.56
2018-09-22T04:27:58.645Z,10.70
2018-09-22T04:28:58.635Z,10.78
2018-09-22T04:29:58.631Z,10.79
2018-09-22T04:30:58.614Z,10.76
2018-09-22T04:31:58.608Z,10.78
2018-09-22T04:32:58.593Z,10.82
2018-09-22T04:33:58.584Z,10.79
2018-09-22T04:34:58.582Z,10.86
2018-09-22T04:35:58.561Z,10.86
2018-09-22T04:36:58.556Z,10.88
2018-09-22T04:37:58.532Z,10.94
2018-09-22T04:38:58.520Z,10.99
2018-09-22T04:39:58.528Z,10.97
2018-09-22T04:40:58.506Z,11.00
2018-09-22T04:41:58.498Z,11.00
2018-09-22T04:42:58.481Z,11.07
2018-09-22T04:43:58.471Z,11.04
2018-09-22T04:44:58.476Z,11.07
2018-09-22T04:45:58.450Z,11.10
2018-09-22T04:46:58.439Z,11.15
2018-09-22T04:47:58.426Z,11.14
2018-09-22T04:48:58.412Z,11.11
2018-09-22T04:49:58.397Z,11.19
2018-09-22T04:50:58.416Z,11.27
2018-09-22T04:51:58.378Z,11.21
2018-09-22T04:52:58.371Z,11.22
2018-09-22T04:53:58.362Z,11.27
2018-09-22T04:54:58.364Z,11.25
2018-09-22T04:55:58.340Z,11.29
2018-09-22T04:56:58.341Z,11.25
2018-09-22T04:57:58.308Z,11.22
2018-09-22T04:58:58.306Z,11.22
2018-09-22T04:59:58.292Z,11.24
2018-09-22T05:00:58.281Z,11.24
2018-09-22T05:01:58.272Z,11.36
2018-09-22T05:02:58.267Z,11.40
2018-09-22T05:03:58.245Z,11.33
2018-09-22T05:04:58.251Z,11.35
2018-09-22T05:05:58.236Z,11.35
2018-09-22T05:06:58.220Z,11.25
2018-09-22T05:07:58.207Z,11.39
2018-09-22T05:08:58.204Z,11.35
2018-09-22T05:09:58.179Z,11.35
2018-09-22T05:10:58.167Z,11.40
2018-09-22T05:11:58.162Z,11.32
2018-09-22T05:12:58.149Z,11.39
2018-09-22T05:13:58.141Z,11.40
2018-09-22T05:14:58.144Z,11.46
2018-09-22T05:15:58.114Z,11.43
2018-09-22T05:16:58.137Z,11.49
2018-09-22T05:17:58.100Z,11.46
2018-09-22T05:18:58.098Z,11.36
2018-09-22T05:19:58.084Z,11.40
2018-09-22T05:20:58.058Z,11.43
2018-09-22T05:21:58.043Z,11.36
2018-09-22T05:22:58.035Z,11.49
2018-09-22T05:23:58.042Z,11.46
2018-09-22T05:24:58.025Z,11.49
2018-09-22T05:25:58.008Z,11.44
2018-09-22T05:26:58.023Z,11.39
2018-09-22T05:27:57.982Z,11.42
2018-09-22T05:28:57.977Z,11.44
2018-09-22T05:29:57.974Z,11.42
2018-09-22T05:30:57.953Z,11.46
2018-09-22T05:31:57.939Z,11.47
2018-09-22T05:32:57.929Z,11.44
2018-09-22T05:33:57.915Z,11.44
2018-09-22T05:34:57.906Z,11.42
2018-09-22T05:35:57.905Z,11.51
2018-09-22T05:36:57.890Z,11.52
2018-09-22T05:37:57.875Z,11.44
2018-09-22T05:38:57.866Z,11.54
2018-09-22T05:39:57.852Z,11.43
2018-09-22T05:40:57.854Z,11.54
2018-09-22T05:41:57.828Z,11.43
2018-09-22T05:42:57.814Z,11.49
2018-09-22T05:43:57.809Z,11.52
2018-09-22T05:44:57.796Z,11.52
2018-09-22T05:45:57.790Z,11.49
2018-09-22T05:46:57.785Z,11.49
2018-09-22T05:48:04.820Z,11.47
2018-09-22T05:48:57.753Z,11.43
2018-09-22T05:49:57.737Z,11.55
2018-09-22T05:50:57.722Z,11.49
2018-09-22T05:51:57.708Z,11.51
2018-09-22T05:52:57.697Z,11.57
2018-09-22T05:53:57.704Z,11.49
2018-09-22T05:54:57.681Z,11.54
2018-09-22T05:55:57.673Z,11.46
2018-09-22T05:56:57.671Z,11.43
2018-09-22T05:57:57.679Z,11.58
2018-09-22T05:58:57.636Z,11.54
2018-09-22T05:59:57.631Z,11.47
2018-09-22T06:00:57.617Z,11.52
2018-09-22T06:01:57.604Z,11.58
2018-09-22T06:02:57.589Z,11.58
2018-09-22T06:03:57.708Z,11.57
2018-09-22T06:04:57.577Z,11.58
2018-09-22T06:05:57.556Z,11.57
2018-09-22T06:06:57.548Z,11.52
2018-09-22T06:07:57.540Z,11.54
2018-09-22T06:08:57.532Z,11.52
2018-09-22T06:09:57.525Z,11.55
2018-09-22T06:10:57.504Z,11.51
2018-09-22T06:11:57.494Z,11.51
2018-09-22T06:12:57.528Z,11.54
2018-09-22T06:13:57.472Z,11.60
2018-09-22T06:14:57.484Z,11.70
2018-09-22T06:15:57.451Z,11.64
2018-09-22T06:16:57.438Z,11.67
2018-09-22T06:17:57.467Z,11.62
2018-09-22T06:18:57.427Z,11.75
2018-09-22T06:19:57.418Z,11.73
2018-09-22T06:20:57.396Z,11.69
2018-09-22T06:21:57.422Z,11.73
2018-09-22T06:22:57.420Z,11.67
2018-09-22T06:23:57.360Z,11.73
2018-09-22T06:24:57.352Z,11.80
2018-09-22T06:25:57.335Z,11.82
2018-09-22T06:26:57.333Z,11.85
2018-09-22T06:27:57.331Z,11.85
2018-09-22T06:28:57.369Z,11.91
2018-09-22T06:29:57.304Z,11.86
2018-09-22T06:30:57.280Z,11.90
2018-09-22T06:31:57.283Z,12.02
2018-09-22T06:32:57.262Z,11.98
2018-09-22T06:33:57.276Z,12.05
2018-09-22T06:34:57.257Z,12.13
2018-09-22T06:35:57.237Z,12.20
2018-09-22T06:36:57.249Z,12.12
2018-09-22T06:37:57.224Z,12.10
2018-09-22T06:38:57.208Z,12.19
2018-09-22T06:39:57.189Z,12.16
2018-09-22T06:40:57.182Z,12.28
2018-09-22T06:41:57.176Z,12.31
2018-09-22T06:42:57.166Z,12.29
2018-09-22T06:43:57.157Z,12.28
2018-09-22T06:44:57.150Z,12.23
2018-09-22T06:45:57.118Z,12.28
2018-09-22T06:46:57.149Z,12.37
2018-09-22T06:47:57.109Z,12.39
2018-09-22T06:48:57.089Z,12.28
2018-09-22T06:49:57.096Z,12.29
2018-09-22T06:50:57.084Z,12.37
2018-09-22T06:51:57.080Z,12.45
2018-09-22T06:52:57.074Z,12.41
2018-09-22T06:53:57.054Z,12.38
2018-09-22T06:54:57.112Z,12.34
2018-09-22T06:55:57.043Z,12.41
2018-09-22T06:56:57.018Z,12.45
2018-09-22T06:57:57.041Z,12.41
2018-09-22T06:58:57.027Z,12.39
2018-09-22T06:59:56.968Z,12.53
2018-09-22T07:00:56.966Z,12.50
2018-09-22T07:01:56.977Z,12.54
2018-09-22T07:02:56.929Z,12.65
2018-09-22T07:03:56.932Z,12.68
2018-09-22T07:04:56.923Z,12.68
2018-09-22T07:05:56.955Z,12.70
2018-09-22T07:06:56.884Z,12.78
2018-09-22T07:07:56.892Z,12.75
2018-09-22T07:08:56.875Z,12.79
2018-09-22T07:09:56.866Z,12.79
2018-09-22T07:10:56.880Z,12.85
2018-09-22T07:11:56.868Z,12.87
2018-09-22T07:12:56.824Z,12.85
2018-09-22T07:13:57.042Z,12.82
2018-09-22T07:14:56.818Z,12.86
2018-09-22T07:15:56.795Z,12.87
2018-09-22T07:16:56.800Z,12.96
2018-09-22T07:17:56.769Z,12.93
2018-09-22T07:18:56.767Z,12.96
2018-09-22T07:19:56.753Z,12.97
2018-09-22T07:20:56.734Z,13.01
2018-09-22T07:21:56.762Z,13.05
2018-09-22T07:22:56.738Z,13.03
2018-09-22T07:23:56.812Z,13.05
2018-09-22T07:24:56.694Z,13.05
2018-09-22T07:25:56.684Z,13.23
2018-09-22T07:26:56.668Z,13.22
2018-09-22T07:27:56.663Z,13.23
2018-09-22T07:28:56.710Z,13.25
2018-09-22T07:29:56.661Z,13.30
2018-09-22T07:30:56.744Z,13.30
2018-09-22T07:31:56.635Z,13.36
2018-09-22T07:32:56.603Z,13.51
2018-09-22T07:33:56.595Z,13.42
2018-09-22T07:34:56.612Z,13.49
2018-09-22T07:35:56.575Z,13.52
2018-09-22T07:36:56.564Z,13.66
2018-09-22T07:37:56.552Z,13.69
2018-09-22T07:38:56.536Z,13.70
2018-09-22T07:39:56.524Z,13.84
2018-09-22T07:40:56.538Z,13.95
2018-09-22T07:41:56.509Z,13.89
2018-09-22T07:42:56.525Z,14.09
2018-09-22T07:43:56.491Z,14.15
2018-09-22T07:44:56.508Z,14.20
2018-09-22T07:45:56.488Z,14.36
2018-09-22T07:46:56.460Z,14.39
2018-09-22T07:47:56.463Z,14.50
2018-09-22T07:48:56.428Z,14.57
2018-09-22T07:49:56.411Z,14.78
2018-09-22T07:50:56.411Z,14.84
2018-09-22T07:51:56.427Z,14.98
2018-09-22T07:52:56.384Z,15.09
2018-09-22T07:53:56.374Z,15.21
2018-09-22T07:54:56.367Z,15.28
2018-09-22T07:55:56.356Z,15.38
2018-09-22T07:56:56.344Z,15.56
2018-09-22T07:57:56.358Z,15.74
2018-09-22T07:58:56.321Z,15.84
2018-09-22T07:59:56.332Z,16.00
2018-09-22T08:00:56.302Z,16.15
2018-09-22T08:01:56.285Z,16.28
2018-09-22T08:02:56.285Z,16.31
2018-09-22T08:03:56.269Z,16.25
2018-09-22T08:04:56.260Z,16.31
2018-09-22T08:05:56.283Z,16.20
2018-09-22T08:06:56.235Z,16.24
2018-09-22T08:07:56.257Z,16.38
2018-09-22T08:08:56.213Z,16.43
2018-09-22T08:09:56.217Z,16.61
2018-09-22T08:10:56.202Z,16.76
2018-09-22T08:11:56.181Z,16.91
2018-09-22T08:12:56.162Z,16.96
2018-09-22T08:13:56.164Z,17.15
2018-09-22T08:14:56.159Z,17.28
2018-09-22T08:15:56.133Z,17.15
2018-09-22T08:16:56.122Z,17.15
2018-09-22T08:17:56.110Z,17.12
2018-09-22T08:18:56.094Z,17.23
2018-09-22T08:19:56.118Z,17.31
2018-09-22T08:20:56.094Z,17.18
2018-09-22T08:21:56.059Z,17.07
2018-09-22T08:22:56.055Z,17.08
2018-09-22T08:23:56.044Z,17.08
2018-09-22T08:24:56.027Z,17.12
2018-09-22T08:25:56.029Z,17.11
2018-09-22T08:26:56.019Z,17.16
2018-09-22T08:27:55.996Z,17.14
2018-09-22T08:28:55.996Z,17.15
2018-09-22T08:29:55.995Z,17.04
2018-09-22T08:30:55.961Z,17.03
2018-09-22T08:31:56.436Z,17.06
2018-09-22T08:32:55.944Z,17.01
2018-09-22T08:33:55.970Z,17.03
2018-09-22T08:34:55.925Z,17.08
2018-09-22T08:35:55.985Z,17.08
2018-09-22T08:36:56.099Z,17.01
2018-09-22T08:37:55.895Z,17.06
2018-09-22T08:38:55.893Z,17.14
2018-09-22T08:39:55.870Z,17.07
2018-09-22T08:40:55.858Z,17.11
2018-09-22T08:41:55.872Z,17.16
2018-09-22T08:42:55.870Z,17.08
2018-09-22T08:43:55.873Z,17.19
2018-09-22T08:44:55.880Z,17.25
2018-09-22T08:45:55.804Z,17.23
2018-09-22T08:46:55.820Z,17.36
2018-09-22T08:47:55.779Z,17.41
2018-09-22T08:48:55.768Z,17.48
2018-09-22T08:49:55.830Z,17.44
2018-09-22T08:50:55.749Z,17.56
2018-09-22T08:51:55.747Z,17.56
2018-09-22T08:52:55.720Z,17.52
2018-09-22T08:53:55.706Z,17.41
2018-09-22T08:54:55.701Z,17.30
2018-09-22T08:55:55.708Z,17.25
2018-09-22T08:56:55.679Z,17.21
2018-09-22T08:57:55.684Z,17.21
2018-09-22T08:58:55.663Z,17.12
2018-09-22T08:59:55.646Z,17.11
2018-09-22T09:00:55.665Z,17.03
2018-09-22T09:01:55.637Z,17.11
2018-09-22T09:02:55.609Z,17.18
2018-09-22T09:03:55.626Z,17.08
2018-09-22T09:04:55.621Z,17.19
2018-09-22T09:05:55.596Z,17.22
2018-09-22T09:06:55.597Z,17.22
2018-09-22T09:07:55.560Z,17.26
2018-09-22T09:08:55.554Z,17.26
2018-09-22T09:09:55.566Z,17.33
2018-09-22T09:10:55.543Z,17.21
2018-09-22T09:11:55.528Z,17.07
2018-09-22T09:12:55.502Z,17.07
2018-09-22T09:13:55.506Z,17.06
2018-09-22T09:14:55.492Z,17.11
2018-09-22T09:15:55.475Z,17.30
2018-09-22T09:16:55.484Z,17.30
2018-09-22T09:17:55.451Z,17.36
2018-09-22T09:18:55.457Z,17.55
2018-09-22T09:19:55.438Z,17.79
2018-09-22T09:20:55.427Z,17.82
2018-09-22T09:21:55.420Z,17.97
2018-09-22T09:22:55.389Z,17.95
2018-09-22T09:23:55.415Z,17.86
2018-09-22T09:24:55.370Z,17.79
2018-09-22T09:25:55.358Z,17.75
2018-09-22T09:26:55.362Z,17.78
2018-09-22T09:27:55.346Z,17.90
2018-09-22T09:28:55.354Z,17.92
2018-09-22T09:29:55.347Z,17.95
2018-09-22T09:30:55.327Z,17.99
2018-09-22T09:31:55.294Z,18.02
2018-09-22T09:32:55.355Z,18.02
2018-09-22T09:33:55.286Z,17.99
2018-09-22T09:34:55.273Z,18.00
2018-09-22T09:35:55.265Z,17.93
2018-09-22T09:36:55.238Z,17.84
2018-09-22T09:37:55.221Z,17.89
2018-09-22T09:38:55.235Z,17.92
2018-09-22T09:39:55.208Z,17.79
2018-09-22T09:40:55.196Z,17.75
2018-09-22T09:41:55.185Z,17.58
2018-09-22T09:42:55.193Z,17.48
2018-09-22T09:43:55.163Z,17.56
2018-09-22T09:44:55.171Z,17.52
2018-09-22T09:45:55.157Z,17.56
2018-09-22T09:46:55.124Z,17.56
2018-09-22T09:47:55.143Z,17.56
2018-09-22T09:48:55.105Z,17.54
2018-09-22T09:49:55.094Z,17.56
2018-09-22T09:50:55.090Z,17.54
2018-09-22T09:51:55.076Z,17.63
2018-09-22T09:52:55.068Z,17.62
2018-09-22T09:53:55.086Z,17.63
2018-09-22T09:54:55.065Z,17.54
2018-09-22T09:55:55.041Z,17.33
2018-09-22T09:56:55.019Z,17.26
2018-09-22T09:57:55.009Z,17.21
2018-09-22T09:58:55.021Z,17.23
2018-09-22T09:59:54.990Z,17.36
2018-09-22T10:00:54.985Z,17.28
2018-09-22T10:01:54.961Z,17.33
2018-09-22T10:02:54.974Z,17.25
2018-09-22T10:03:54.944Z,17.12
2018-09-22T10:04:54.937Z,16.98
2018-09-22T10:05:54.940Z,16.93
2018-09-22T10:06:54.907Z,16.94
2018-09-22T10:07:54.921Z,16.91
2018-09-22T10:08:54.889Z,17.04
2018-09-22T10:09:54.877Z,17.16
2018-09-22T10:10:54.908Z,17.08
2018-09-22T10:11:54.951Z,17.31
2018-09-22T10:12:54.845Z,17.36
2018-09-22T10:13:54.856Z,17.41
2018-09-22T10:14:54.820Z,17.31
2018-09-22T10:15:54.848Z,17.43
2018-09-22T10:16:54.805Z,17.40
2018-09-22T10:17:54.800Z,17.38
2018-09-22T10:18:54.784Z,17.43
2018-09-22T10:19:54.789Z,17.44
2018-09-22T10:20:54.785Z,17.31
2018-09-22T10:21:54.741Z,17.34
2018-09-22T10:22:54.778Z,17.40
2018-09-22T10:23:54.727Z,17.48
2018-09-22T10:24:54.720Z,17.54
2018-09-22T10:25:54.709Z,17.44
2018-09-22T10:26:54.701Z,17.51
2018-09-22T10:27:54.695Z,17.54
2018-09-22T10:28:54.748Z,17.58
2018-09-22T10:29:54.659Z,17.56
2018-09-22T10:30:54.656Z,17.64
2018-09-22T10:31:54.685Z,17.68
2018-09-22T10:32:54.633Z,17.71
2018-09-22T10:33:54.645Z,17.77
2018-09-22T10:34:54.608Z,17.77
2018-09-22T10:35:54.601Z,17.68
2018-09-22T10:36:54.590Z,17.66
2018-09-22T10:37:54.603Z,17.56
2018-09-22T10:38:54.558Z,17.62
2018-09-22T10:39:54.579Z,17.58
2018-09-22T10:40:54.543Z,17.58
2018-09-22T10:41:54.541Z,17.56
2018-09-22T10:42:54.528Z,17.55
2018-09-22T10:43:54.526Z,17.56
2018-09-22T10:44:54.496Z,17.48
2018-09-22T10:45:54.494Z,17.51
2018-09-22T10:46:54.482Z,17.51
2018-09-22T10:47:54.484Z,17.54
2018-09-22T10:48:54.449Z,17.54
2018-09-22T10:49:54.454Z,17.44
2018-09-22T10:50:54.440Z,17.54
2018-09-22T10:51:54.449Z,17.63
2018-09-22T10:52:54.476Z,17.75
2018-09-22T10:53:54.443Z,17.89
2018-09-22T10:54:54.397Z,17.95
2018-09-22T10:55:54.378Z,18.03
2018-09-22T10:56:54.383Z,18.07
2018-09-22T10:57:54.370Z,18.17
2018-09-22T10:58:54.371Z,18.21
2018-09-22T10:59:54.345Z,18.12
2018-09-22T11:00:54.330Z,18.12
2018-09-22T11:01:54.314Z,18.14
2018-09-22T11:02:54.315Z,18.15
2018-09-22T11:03:54.294Z,18.27
2018-09-22T11:04:54.296Z,18.33
2018-09-22T11:05:54.300Z,18.35
2018-09-22T11:06:54.263Z,18.27
2018-09-22T11:07:54.260Z,18.25
2018-09-22T11:08:54.233Z,18.14
2018-09-22T11:09:54.220Z,18.07
2018-09-22T11:10:54.239Z,17.96
2018-09-22T11:11:54.201Z,17.74
2018-09-22T11:12:54.194Z,17.79
2018-09-22T11:13:54.205Z,17.78
2018-09-22T11:14:54.182Z,17.89
2018-09-22T11:15:54.166Z,17.92
2018-09-22T11:16:54.147Z,17.82
2018-09-22T11:17:54.152Z,17.96
2018-09-22T11:18:54.137Z,17.96
2018-09-22T11:19:54.113Z,18.05
2018-09-22T11:20:54.134Z,18.00
2018-09-22T11:21:54.097Z,18.07
2018-09-22T11:22:54.085Z,18.03
2018-09-22T11:23:54.072Z,17.92
2018-09-22T11:24:54.065Z,18.07
2018-09-22T11:25:54.087Z,18.00
2018-09-22T11:26:54.089Z,18.07
2018-09-22T11:27:54.038Z,18.05
2018-09-22T11:28:54.024Z,18.00
2018-09-22T11:29:53.999Z,18.00
2018-09-22T11:30:54.004Z,18.15
2018-09-22T11:31:53.983Z,18.20
2018-09-22T11:32:53.998Z,18.29
2018-09-22T11:33:53.990Z,18.29
2018-09-22T11:34:53.942Z,18.41
2018-09-22T11:35:53.937Z,18.48
2018-09-22T11:36:53.925Z,18.37
2018-09-22T11:37:53.941Z,18.50
2018-09-22T11:38:53.917Z,18.50
2018-09-22T11:39:53.890Z,18.55
2018-09-22T11:40:53.898Z,18.66
2018-09-22T11:41:53.866Z,18.58
2018-09-22T11:42:53.875Z,18.63
2018-09-22T11:43:53.861Z,18.63
2018-09-22T11:44:53.853Z,18.69
2018-09-22T11:45:53.839Z,18.66
2018-09-22T11:46:53.811Z,18.65
2018-09-22T11:47:53.832Z,18.70
2018-09-22T11:48:53.795Z,18.72
2018-09-22T11:49:53.776Z,18.70
2018-09-22T11:50:53.814Z,18.69
2018-09-22T11:51:53.765Z,18.81
2018-09-22T11:52:53.771Z,18.80
2018-09-22T11:53:53.749Z,18.88
2018-09-22T11:54:53.733Z,18.98
2018-09-22T11:55:53.740Z,18.92
2018-09-22T11:57:00.762Z,18.94
2018-09-22T11:57:53.691Z,18.98
2018-09-22T11:58:53.682Z,18.94
2018-09-22T11:59:53.667Z,18.90
2018-09-22T12:00:53.686Z,18.84
2018-09-22T12:01:53.676Z,18.95
2018-09-22T12:02:53.640Z,18.85
2018-09-22T12:03:53.629Z,18.85
2018-09-22T12:04:53.629Z,18.91
2018-09-22T12:05:53.662Z,18.92
2018-09-22T12:06:53.594Z,18.75
2018-09-22T12:07:53.585Z,18.80
2018-09-22T12:08:53.565Z,18.70
2018-09-22T12:09:53.558Z,18.84
2018-09-22T12:10:53.556Z,18.91
2018-09-22T12:11:53.532Z,18.95
2018-09-22T12:12:53.530Z,18.85
2018-09-22T12:13:53.550Z,18.87
2018-09-22T12:14:53.517Z,18.82
2018-09-22T12:15:53.497Z,18.85
2018-09-22T12:16:53.480Z,18.82
2018-09-22T12:17:53.468Z,18.84
2018-09-22T12:18:53.460Z,18.75
2018-09-22T12:19:53.455Z,18.66
2018-09-22T12:20:53.456Z,18.65
2018-09-22T12:21:53.456Z,18.60
2018-09-22T12:22:53.427Z,18.57
2018-09-22T12:23:53.427Z,18.51
2018-09-22T12:24:53.403Z,18.41
2018-09-22T12:25:53.402Z,18.29
2018-09-22T12:26:53.397Z,18.33
2018-09-22T12:27:53.374Z,18.27
2018-09-22T12:28:53.358Z,18.26
2018-09-22T12:29:53.345Z,18.25
2018-09-22T12:30:53.336Z,18.12
2018-09-22T12:31:53.396Z,18.15
2018-09-22T12:32:53.324Z,18.12
2018-09-22T12:33:53.294Z,18.14
2018-09-22T12:34:53.313Z,18.12
2018-09-22T12:35:53.279Z,18.08
2018-09-22T12:36:53.270Z,18.10
2018-09-22T12:37:53.248Z,18.10
2018-09-22T12:38:53.240Z,18.03
2018-09-22T12:39:53.243Z,17.97
2018-09-22T12:40:53.211Z,17.95
2018-09-22T12:41:53.247Z,17.95
2018-09-22T12:42:53.210Z,18.02
2018-09-22T12:43:53.179Z,18.08
2018-09-22T12:44:53.344Z,18.02
2018-09-22T12:45:53.192Z,18.10
2018-09-22T12:46:53.154Z,18.02
2018-09-22T12:47:53.188Z,17.96
2018-09-22T12:48:53.190Z,18.11
2018-09-22T12:49:53.134Z,18.18
2018-09-22T12:50:53.132Z,18.15
2018-09-22T12:51:53.093Z,18.17